asianscreens.com alexa rank chart, asianscreens.com alexa rank daily changes

asianscreens.com alexa rank chart, asianscreens.com alexa rank daily changes

asianscreens.com
Actual rank:
52 977

RANK HISTORY

Date Rank Diff
2017/12/09 52 977 -18
2017/12/08 52 995 +607
2017/12/07 52 388 +317
2017/12/06 52 071 +1 293
2017/12/05 50 778 +106
2017/12/04 50 672 -2 938
2017/12/03 53 610 -1 381
2017/12/02 54 991 -338
2017/12/01 55 329 +79
2017/11/30 55 250 +2 826
2017/11/29 52 424 -643
2017/11/28 53 067 -138
2017/11/27 53 205 -1 596
2017/11/26 54 801 -1 744
2017/11/25 56 545 -1 604
2017/11/24 58 149 +642
2017/11/23 57 507 -8
2017/11/22 57 515 -755
2017/11/21 58 270 -1 117
2017/11/20 59 387 +633
2017/11/19 58 754 +584
2017/11/18 58 170 +548
2017/11/17 57 622 +3 607
2017/11/16 54 015 -8
2017/11/15 54 023 +1 254
2017/11/14 52 769 +2 371
2017/11/13 50 398 -1 371
2017/11/12 51 769 -417
2017/11/11 52 186 +118
2017/11/10 52 068 -396
2017/11/09 52 464 -663
2017/11/08 53 127 +191
2017/11/07 52 936 +1 033
2017/11/06 51 903 -294
2017/11/05 52 197 -1 515
2017/11/04 53 712 +153
2017/11/03 53 559 -104
2017/11/02 53 663 +1 251
2017/11/01 52 412 +772
2017/10/31 51 640 -1
2017/10/30 51 641 -1 843
2017/10/29 53 484 -11
2017/10/28 53 495 +206
2017/10/27 53 289 +695
2017/10/26 52 594 +1 121
2017/10/25 51 473 +1 242
2017/10/24 50 231 +965
2017/10/23 49 266 -632
2017/10/22 49 898 +2 677
2017/10/21 47 221 +506
2017/10/20 46 715 +128
2017/10/19 46 587 +268
2017/10/18 46 319 +57
2017/10/17 46 262 -2 436
2017/10/16 48 698 -887
2017/10/14 49 585 -2 465
2017/10/13 52 050 +99
2017/10/12 51 951 -593
2017/10/11 52 544 +762
2017/10/10 51 782

WIDGET FOR YOUR SITE

DOMAINS WITH THE NEAREST RANK

Domain Rank
primeriti.es 52 972
mandarinoriental.com 52 973
raritetus.ru 52 974
tehnika.expert 52 975
biddytarot.com 52 976
asianscreens.com 52 977
rohlik.cz 52 978
bpm-power.com 52 979
silktide.com 52 980
shtfplan.com 52 981
mimizzz.com 52 982

DOMAINS WITH THE NEAREST RANK BY TLD .com

Domain Rank
xcqtp.com 52 967
plexusworldwide.com 52 968
hornybank.com 52 970
mandarinoriental.com 52 973
biddytarot.com 52 976
asianscreens.com 52 977
bpm-power.com 52 979
silktide.com 52 980
shtfplan.com 52 981
mimizzz.com 52 982
captplay.com 52 983